sensor_id;sensor_type;location;lat;lon;timestamp;P1;durP1;ratioP1;P2;durP2;ratioP2
32872;SDS011;19224;52.462;16.898;2023-03-24T00:00:28;12.37;;;6.08;;
32872;SDS011;19224;52.462;16.898;2023-03-24T00:03:00;11.78;;;6.58;;
32872;SDS011;19224;52.462;16.898;2023-03-24T00:05:30;11.10;;;6.37;;
32872;SDS011;19224;52.462;16.898;2023-03-24T00:08:02;9.90;;;6.17;;
32872;SDS011;19224;52.462;16.898;2023-03-24T00:10:36;11.95;;;6.75;;
32872;SDS011;19224;52.462;16.898;2023-03-24T00:13:08;12.43;;;6.45;;
32872;SDS011;19224;52.462;16.898;2023-03-24T00:15:39;10.75;;;6.35;;
32872;SDS011;19224;52.462;16.898;2023-03-24T00:18:09;10.82;;;6.75;;
32872;SDS011;19224;52.462;16.898;2023-03-24T00:20:41;12.98;;;6.72;;
32872;SDS011;19224;52.462;16.898;2023-03-24T00:23:15;10.88;;;6.22;;
32872;SDS011;19224;52.462;16.898;2023-03-24T00:25:57;11.90;;;6.55;;
32872;SDS011;19224;52.462;16.898;2023-03-24T00:28:48;11.12;;;6.53;;
32872;SDS011;19224;52.462;16.898;2023-03-24T00:31:16;10.90;;;6.78;;
32872;SDS011;19224;52.462;16.898;2023-03-24T00:33:47;10.95;;;6.67;;
32872;SDS011;19224;52.462;16.898;2023-03-24T00:36:19;9.95;;;6.75;;
32872;SDS011;19224;52.462;16.898;2023-03-24T00:38:52;9.60;;;6.55;;
32872;SDS011;19224;52.462;16.898;2023-03-24T00:41:26;10.78;;;6.30;;
32872;SDS011;19224;52.462;16.898;2023-03-24T00:43:58;12.45;;;6.45;;
32872;SDS011;19224;52.462;16.898;2023-03-24T00:46:40;10.45;;;6.37;;
32872;SDS011;19224;52.462;16.898;2023-03-24T00:49:19;12.13;;;6.62;;
32872;SDS011;19224;52.462;16.898;2023-03-24T00:51:44;13.85;;;6.67;;
32872;SDS011;19224;52.462;16.898;2023-03-24T00:54:15;11.18;;;6.53;;
32872;SDS011;19224;52.462;16.898;2023-03-24T00:56:47;11.12;;;6.60;;
32872;SDS011;19224;52.462;16.898;2023-03-24T00:59:19;12.55;;;6.37;;
32872;SDS011;19224;52.462;16.898;2023-03-24T01:01:50;14.35;;;6.62;;
32872;SDS011;19224;52.462;16.898;2023-03-24T01:04:24;12.63;;;7.10;;
32872;SDS011;19224;52.462;16.898;2023-03-24T01:06:55;9.40;;;6.03;;
32872;SDS011;19224;52.462;16.898;2023-03-24T01:09:27;14.83;;;6.55;;
32872;SDS011;19224;52.462;16.898;2023-03-24T01:11:57;10.70;;;6.50;;
32872;SDS011;19224;52.462;16.898;2023-03-24T01:14:34;10.60;;;6.12;;
32872;SDS011;19224;52.462;16.898;2023-03-24T01:17:04;10.78;;;6.15;;
32872;SDS011;19224;52.462;16.898;2023-03-24T01:19:35;13.88;;;6.62;;
32872;SDS011;19224;52.462;16.898;2023-03-24T01:22:08;10.65;;;6.22;;
32872;SDS011;19224;52.462;16.898;2023-03-24T01:24:39;9.83;;;5.85;;
32872;SDS011;19224;52.462;16.898;2023-03-24T01:27:10;10.08;;;6.17;;
32872;SDS011;19224;52.462;16.898;2023-03-24T01:29:41;10.38;;;6.05;;
32872;SDS011;19224;52.462;16.898;2023-03-24T01:32:13;11.88;;;6.08;;
32872;SDS011;19224;52.462;16.898;2023-03-24T01:34:44;13.75;;;5.80;;
32872;SDS011;19224;52.462;16.898;2023-03-24T01:37:14;9.88;;;6.08;;
32872;SDS011;19224;52.462;16.898;2023-03-24T01:39:50;9.50;;;5.67;;
32872;SDS011;19224;52.462;16.898;2023-03-24T01:42:22;18.42;;;5.90;;
32872;SDS011;19224;52.462;16.898;2023-03-24T01:44:56;11.85;;;5.75;;
32872;SDS011;19224;52.462;16.898;2023-03-24T01:47:31;9.03;;;5.22;;
32872;SDS011;19224;52.462;16.898;2023-03-24T01:50:05;8.30;;;5.50;;
32872;SDS011;19224;52.462;16.898;2023-03-24T01:52:36;9.73;;;5.65;;
32872;SDS011;19224;52.462;16.898;2023-03-24T01:55:10;9.48;;;5.40;;
32872;SDS011;19224;52.462;16.898;2023-03-24T01:57:47;7.60;;;4.47;;
32872;SDS011;19224;52.462;16.898;2023-03-24T02:00:23;8.58;;;4.75;;
32872;SDS011;19224;52.462;16.898;2023-03-24T02:02:55;8.48;;;4.55;;
32872;SDS011;19224;52.462;16.898;2023-03-24T02:05:28;9.75;;;5.05;;
32872;SDS011;19224;52.462;16.898;2023-03-24T02:11:19;10.25;;;4.70;;
32872;SDS011;19224;52.462;16.898;2023-03-24T02:13:48;7.00;;;4.50;;
32872;SDS011;19224;52.462;16.898;2023-03-24T02:16:33;8.98;;;4.97;;
32872;SDS011;19224;52.462;16.898;2023-03-24T02:25:19;9.53;;;4.60;;
32872;SDS011;19224;52.462;16.898;2023-03-24T02:27:58;9.43;;;4.85;;
32872;SDS011;19224;52.462;16.898;2023-03-24T02:39:40;8.33;;;4.62;;
32872;SDS011;19224;52.462;16.898;2023-03-24T02:42:25;9.10;;;4.47;;
32872;SDS011;19224;52.462;16.898;2023-03-24T02:45:30;8.43;;;5.00;;
32872;SDS011;19224;52.462;16.898;2023-03-24T02:48:20;8.10;;;4.60;;
32872;SDS011;19224;52.462;16.898;2023-03-24T02:56:37;8.83;;;4.30;;
32872;SDS011;19224;52.462;16.898;2023-03-24T02:59:23;6.50;;;4.45;;
32872;SDS011;19224;52.462;16.898;2023-03-24T03:02:08;7.12;;;4.17;;
32872;SDS011;19224;52.462;16.898;2023-03-24T03:04:53;7.33;;;4.70;;
32872;SDS011;19224;52.462;16.898;2023-03-24T03:07:33;8.15;;;4.10;;
32872;SDS011;19224;52.462;16.898;2023-03-24T03:12:58;10.38;;;4.97;;
32872;SDS011;19224;52.462;16.898;2023-03-24T03:15:38;7.40;;;4.72;;
32872;SDS011;19224;52.462;16.898;2023-03-24T03:18:12;9.98;;;5.25;;
32872;SDS011;19224;52.462;16.898;2023-03-24T03:20:50;12.90;;;5.58;;
32872;SDS011;19224;52.462;16.898;2023-03-24T03:23:23;11.12;;;6.00;;
32872;SDS011;19224;52.462;16.898;2023-03-24T03:26:00;14.60;;;6.33;;
32872;SDS011;19224;52.462;16.898;2023-03-24T03:28:35;11.40;;;6.08;;
32872;SDS011;19224;52.462;16.898;2023-03-24T03:31:10;10.30;;;5.97;;
32872;SDS011;19224;52.462;16.898;2023-03-24T03:33:52;11.73;;;6.05;;
32872;SDS011;19224;52.462;16.898;2023-03-24T03:36:33;11.28;;;6.12;;
32872;SDS011;19224;52.462;16.898;2023-03-24T03:41:55;12.78;;;6.22;;
32872;SDS011;19224;52.462;16.898;2023-03-24T03:44:31;10.85;;;5.85;;
32872;SDS011;19224;52.462;16.898;2023-03-24T03:47:02;9.15;;;5.92;;
32872;SDS011;19224;52.462;16.898;2023-03-24T03:49:45;10.10;;;6.28;;
32872;SDS011;19224;52.462;16.898;2023-03-24T03:52:15;12.15;;;6.28;;
32872;SDS011;19224;52.462;16.898;2023-03-24T03:54:48;10.70;;;6.37;;
32872;SDS011;19224;52.462;16.898;2023-03-24T03:57:21;10.35;;;5.47;;
32872;SDS011;19224;52.462;16.898;2023-03-24T03:59:59;8.83;;;5.67;;
32872;SDS011;19224;52.462;16.898;2023-03-24T04:05:15;11.80;;;6.20;;
32872;SDS011;19224;52.462;16.898;2023-03-24T04:13:26;10.53;;;5.53;;
32872;SDS011;19224;52.462;16.898;2023-03-24T04:16:22;13.53;;;5.58;;
32872;SDS011;19224;52.462;16.898;2023-03-24T04:22:42;9.15;;;5.17;;
32872;SDS011;19224;52.462;16.898;2023-03-24T04:25:46;9.43;;;5.35;;
32872;SDS011;19224;52.462;16.898;2023-03-24T04:28:34;10.03;;;5.15;;
32872;SDS011;19224;52.462;16.898;2023-03-24T04:33:56;10.50;;;5.60;;
32872;SDS011;19224;52.462;16.898;2023-03-24T04:36:34;12.78;;;5.20;;
32872;SDS011;19224;52.462;16.898;2023-03-24T04:39:14;12.03;;;5.15;;
32872;SDS011;19224;52.462;16.898;2023-03-24T04:41:49;10.82;;;5.65;;
32872;SDS011;19224;52.462;16.898;2023-03-24T04:44:29;23.75;;;6.00;;
32872;SDS011;19224;52.462;16.898;2023-03-24T04:46:55;12.10;;;6.30;;
32872;SDS011;19224;52.462;16.898;2023-03-24T04:49:29;9.90;;;5.92;;
32872;SDS011;19224;52.462;16.898;2023-03-24T04:52:00;8.93;;;5.80;;
32872;SDS011;19224;52.462;16.898;2023-03-24T04:54:33;10.58;;;5.58;;
32872;SDS011;19224;52.462;16.898;2023-03-24T04:57:04;10.70;;;5.33;;
32872;SDS011;19224;52.462;16.898;2023-03-24T04:59:45;9.80;;;5.67;;
32872;SDS011;19224;52.462;16.898;2023-03-24T05:02:16;7.80;;;5.47;;
32872;SDS011;19224;52.462;16.898;2023-03-24T05:04:47;9.68;;;5.92;;
32872;SDS011;19224;52.462;16.898;2023-03-24T05:07:17;8.50;;;5.37;;
32872;SDS011;19224;52.462;16.898;2023-03-24T05:09:51;12.10;;;5.33;;
32872;SDS011;19224;52.462;16.898;2023-03-24T05:12:24;10.05;;;5.40;;
32872;SDS011;19224;52.462;16.898;2023-03-24T05:14:54;10.63;;;5.47;;
32872;SDS011;19224;52.462;16.898;2023-03-24T05:17:28;11.85;;;5.83;;
32872;SDS011;19224;52.462;16.898;2023-03-24T05:19:58;13.75;;;5.70;;
32872;SDS011;19224;52.462;16.898;2023-03-24T05:22:32;11.08;;;5.95;;
32872;SDS011;19224;52.462;16.898;2023-03-24T05:25:02;14.53;;;6.22;;
32872;SDS011;19224;52.462;16.898;2023-03-24T05:27:33;13.88;;;5.72;;
32872;SDS011;19224;52.462;16.898;2023-03-24T05:30:06;11.75;;;5.70;;
32872;SDS011;19224;52.462;16.898;2023-03-24T05:32:37;11.70;;;5.90;;
32872;SDS011;19224;52.462;16.898;2023-03-24T05:35:10;12.53;;;6.20;;
32872;SDS011;19224;52.462;16.898;2023-03-24T05:37:42;10.13;;;5.62;;
32872;SDS011;19224;52.462;16.898;2023-03-24T05:40:12;9.68;;;6.20;;
32872;SDS011;19224;52.462;16.898;2023-03-24T05:42:48;14.20;;;6.12;;
32872;SDS011;19224;52.462;16.898;2023-03-24T05:45:19;10.23;;;5.30;;
32872;SDS011;19224;52.462;16.898;2023-03-24T05:47:49;12.95;;;5.37;;
32872;SDS011;19224;52.462;16.898;2023-03-24T05:50:20;10.78;;;5.87;;
32872;SDS011;19224;52.462;16.898;2023-03-24T05:52:51;11.57;;;5.65;;
32872;SDS011;19224;52.462;16.898;2023-03-24T05:55:22;8.65;;;5.47;;
32872;SDS011;19224;52.462;16.898;2023-03-24T05:57:52;10.58;;;5.45;;
32872;SDS011;19224;52.462;16.898;2023-03-24T06:00:23;14.73;;;5.85;;
32872;SDS011;19224;52.462;16.898;2023-03-24T06:02:54;8.75;;;5.47;;
32872;SDS011;19224;52.462;16.898;2023-03-24T06:05:26;10.60;;;5.53;;
32872;SDS011;19224;52.462;16.898;2023-03-24T06:08:01;11.53;;;6.20;;
32872;SDS011;19224;52.462;16.898;2023-03-24T06:10:31;10.68;;;5.65;;
32872;SDS011;19224;52.462;16.898;2023-03-24T06:13:03;9.95;;;5.60;;
32872;SDS011;19224;52.462;16.898;2023-03-24T06:15:35;11.05;;;6.20;;
32872;SDS011;19224;52.462;16.898;2023-03-24T06:18:06;8.88;;;5.97;;
32872;SDS011;19224;52.462;16.898;2023-03-24T06:20:39;12.28;;;5.80;;
32872;SDS011;19224;52.462;16.898;2023-03-24T06:23:11;9.68;;;5.60;;
32872;SDS011;19224;52.462;16.898;2023-03-24T06:25:45;9.75;;;6.28;;
32872;SDS011;19224;52.462;16.898;2023-03-24T06:28:17;14.28;;;6.00;;
32872;SDS011;19224;52.462;16.898;2023-03-24T06:30:48;15.68;;;5.85;;
32872;SDS011;19224;52.462;16.898;2023-03-24T06:33:22;11.15;;;5.78;;
32872;SDS011;19224;52.462;16.898;2023-03-24T06:35:53;10.40;;;6.10;;
32872;SDS011;19224;52.462;16.898;2023-03-24T06:38:25;10.82;;;5.70;;
32872;SDS011;19224;52.462;16.898;2023-03-24T06:40:59;8.15;;;5.55;;
32872;SDS011;19224;52.462;16.898;2023-03-24T06:43:33;9.08;;;5.25;;
32872;SDS011;19224;52.462;16.898;2023-03-24T06:46:04;9.25;;;5.42;;
32872;SDS011;19224;52.462;16.898;2023-03-24T06:48:37;9.30;;;4.75;;
32872;SDS011;19224;52.462;16.898;2023-03-24T06:51:11;7.10;;;4.37;;
32872;SDS011;19224;52.462;16.898;2023-03-24T06:53:42;8.60;;;3.90;;
32872;SDS011;19224;52.462;16.898;2023-03-24T06:56:12;7.70;;;4.90;;
32872;SDS011;19224;52.462;16.898;2023-03-24T06:58:52;6.80;;;4.12;;
32872;SDS011;19224;52.462;16.898;2023-03-24T07:01:23;7.47;;;4.25;;
32872;SDS011;19224;52.462;16.898;2023-03-24T07:03:53;7.28;;;4.42;;
32872;SDS011;19224;52.462;16.898;2023-03-24T07:06:24;5.15;;;3.92;;
32872;SDS011;19224;52.462;16.898;2023-03-24T07:08:56;7.28;;;4.40;;
32872;SDS011;19224;52.462;16.898;2023-03-24T07:11:28;6.22;;;4.30;;
32872;SDS011;19224;52.462;16.898;2023-03-24T07:13:59;6.33;;;4.00;;
32872;SDS011;19224;52.462;16.898;2023-03-24T07:16:29;7.55;;;4.30;;
32872;SDS011;19224;52.462;16.898;2023-03-24T07:19:00;6.37;;;4.17;;
32872;SDS011;19224;52.462;16.898;2023-03-24T07:21:30;5.95;;;4.05;;
32872;SDS011;19224;52.462;16.898;2023-03-24T07:24:01;6.67;;;4.00;;
32872;SDS011;19224;52.462;16.898;2023-03-24T07:26:31;7.72;;;4.20;;
32872;SDS011;19224;52.462;16.898;2023-03-24T07:29:03;5.83;;;4.05;;
32872;SDS011;19224;52.462;16.898;2023-03-24T07:31:33;8.25;;;4.22;;
32872;SDS011;19224;52.462;16.898;2023-03-24T07:34:04;4.83;;;3.75;;
32872;SDS011;19224;52.462;16.898;2023-03-24T07:36:36;6.30;;;4.33;;
32872;SDS011;19224;52.462;16.898;2023-03-24T07:39:06;8.00;;;4.05;;
32872;SDS011;19224;52.462;16.898;2023-03-24T07:41:37;6.17;;;4.37;;
32872;SDS011;19224;52.462;16.898;2023-03-24T07:44:08;7.47;;;4.28;;
32872;SDS011;19224;52.462;16.898;2023-03-24T07:46:39;6.12;;;4.25;;
32872;SDS011;19224;52.462;16.898;2023-03-24T07:49:09;8.98;;;4.50;;
32872;SDS011;19224;52.462;16.898;2023-03-24T07:51:41;7.55;;;4.55;;
32872;SDS011;19224;52.462;16.898;2023-03-24T07:54:12;6.78;;;4.50;;
32872;SDS011;19224;52.462;16.898;2023-03-24T07:56:43;6.12;;;4.17;;
32872;SDS011;19224;52.462;16.898;2023-03-24T07:59:13;7.40;;;4.40;;
32872;SDS011;19224;52.462;16.898;2023-03-24T08:01:44;8.78;;;4.80;;
32872;SDS011;19224;52.462;16.898;2023-03-24T08:04:16;7.00;;;4.55;;
32872;SDS011;19224;52.462;16.898;2023-03-24T08:06:47;8.45;;;4.40;;
32872;SDS011;19224;52.462;16.898;2023-03-24T08:09:19;12.10;;;4.80;;
32872;SDS011;19224;52.462;16.898;2023-03-24T08:11:50;10.53;;;4.50;;
32872;SDS011;19224;52.462;16.898;2023-03-24T08:14:21;7.37;;;4.80;;
32872;SDS011;19224;52.462;16.898;2023-03-24T08:16:52;10.25;;;4.85;;
32872;SDS011;19224;52.462;16.898;2023-03-24T08:19:22;5.58;;;4.15;;
32872;SDS011;19224;52.462;16.898;2023-03-24T08:21:53;5.70;;;4.05;;
32872;SDS011;19224;52.462;16.898;2023-03-24T08:24:23;6.15;;;3.80;;
32872;SDS011;19224;52.462;16.898;2023-03-24T08:26:54;14.40;;;7.42;;
32872;SDS011;19224;52.462;16.898;2023-03-24T08:29:26;9.83;;;4.20;;
32872;SDS011;19224;52.462;16.898;2023-03-24T08:31:56;6.33;;;4.30;;
32872;SDS011;19224;52.462;16.898;2023-03-24T08:34:27;5.85;;;4.03;;
32872;SDS011;19224;52.462;16.898;2023-03-24T08:36:58;7.17;;;4.70;;
32872;SDS011;19224;52.462;16.898;2023-03-24T08:39:31;7.50;;;4.70;;
32872;SDS011;19224;52.462;16.898;2023-03-24T08:42:02;6.10;;;4.00;;
32872;SDS011;19224;52.462;16.898;2023-03-24T08:44:33;7.40;;;4.12;;
32872;SDS011;19224;52.462;16.898;2023-03-24T08:47:04;5.97;;;3.85;;
32872;SDS011;19224;52.462;16.898;2023-03-24T08:49:34;10.48;;;4.10;;
32872;SDS011;19224;52.462;16.898;2023-03-24T08:52:05;7.15;;;3.90;;
32872;SDS011;19224;52.462;16.898;2023-03-24T08:54:36;5.90;;;3.65;;
32872;SDS011;19224;52.462;16.898;2023-03-24T08:57:06;5.90;;;3.72;;
32872;SDS011;19224;52.462;16.898;2023-03-24T08:59:37;7.17;;;4.00;;
32872;SDS011;19224;52.462;16.898;2023-03-24T09:02:11;6.22;;;3.35;;
32872;SDS011;19224;52.462;16.898;2023-03-24T09:04:45;5.72;;;3.33;;
32872;SDS011;19224;52.462;16.898;2023-03-24T09:07:17;5.95;;;3.27;;
32872;SDS011;19224;52.462;16.898;2023-03-24T09:09:49;9.50;;;3.00;;
32872;SDS011;19224;52.462;16.898;2023-03-24T09:12:20;8.65;;;3.20;;
32872;SDS011;19224;52.462;16.898;2023-03-24T09:14:51;8.40;;;3.25;;
32872;SDS011;19224;52.462;16.898;2023-03-24T09:17:21;5.78;;;3.35;;
32872;SDS011;19224;52.462;16.898;2023-03-24T09:19:52;6.12;;;3.37;;
32872;SDS011;19224;52.462;16.898;2023-03-24T09:22:23;4.72;;;2.92;;
32872;SDS011;19224;52.462;16.898;2023-03-24T09:24:54;6.22;;;2.50;;
32872;SDS011;19224;52.462;16.898;2023-03-24T09:27:24;5.08;;;2.75;;
32872;SDS011;19224;52.462;16.898;2023-03-24T09:29:55;6.33;;;3.12;;
32872;SDS011;19224;52.462;16.898;2023-03-24T09:32:25;4.20;;;2.37;;
32872;SDS011;19224;52.462;16.898;2023-03-24T09:34:56;9.15;;;3.30;;
32872;SDS011;19224;52.462;16.898;2023-03-24T09:37:28;3.62;;;3.00;;
32872;SDS011;19224;52.462;16.898;2023-03-24T09:40:00;4.03;;;2.65;;
32872;SDS011;19224;52.462;16.898;2023-03-24T09:42:33;5.55;;;2.90;;
32872;SDS011;19224;52.462;16.898;2023-03-24T09:45:16;9.85;;;3.00;;
32872;SDS011;19224;52.462;16.898;2023-03-24T09:47:59;6.62;;;2.85;;
32872;SDS011;19224;52.462;16.898;2023-03-24T09:50:33;13.28;;;3.22;;
32872;SDS011;19224;52.462;16.898;2023-03-24T09:56:11;5.60;;;3.30;;
32872;SDS011;19224;52.462;16.898;2023-03-24T09:58:48;9.03;;;3.47;;
32872;SDS011;19224;52.462;16.898;2023-03-24T10:01:24;11.73;;;3.02;;
32872;SDS011;19224;52.462;16.898;2023-03-24T10:03:56;12.18;;;4.53;;
32872;SDS011;19224;52.462;16.898;2023-03-24T10:06:34;7.12;;;3.12;;
32872;SDS011;19224;52.462;16.898;2023-03-24T10:15:25;7.40;;;3.60;;
32872;SDS011;19224;52.462;16.898;2023-03-24T10:18:22;9.78;;;3.92;;
32872;SDS011;19224;52.462;16.898;2023-03-24T10:29:33;5.90;;;3.37;;
32872;SDS011;19224;52.462;16.898;2023-03-24T10:32:11;10.72;;;3.55;;
32872;SDS011;19224;52.462;16.898;2023-03-24T10:34:50;5.67;;;3.90;;
32872;SDS011;19224;52.462;16.898;2023-03-24T10:37:26;7.85;;;3.72;;
32872;SDS011;19224;52.462;16.898;2023-03-24T10:39:59;4.95;;;3.42;;
32872;SDS011;19224;52.462;16.898;2023-03-24T10:42:32;9.45;;;3.40;;
32872;SDS011;19224;52.462;16.898;2023-03-24T10:45:04;9.58;;;3.40;;
32872;SDS011;19224;52.462;16.898;2023-03-24T10:47:38;6.47;;;3.25;;
32872;SDS011;19224;52.462;16.898;2023-03-24T10:50:10;6.90;;;3.30;;
32872;SDS011;19224;52.462;16.898;2023-03-24T10:52:41;6.78;;;3.40;;
32872;SDS011;19224;52.462;16.898;2023-03-24T10:55:17;6.97;;;3.80;;
32872;SDS011;19224;52.462;16.898;2023-03-24T10:57:55;6.70;;;3.72;;
32872;SDS011;19224;52.462;16.898;2023-03-24T11:00:29;6.50;;;4.05;;
32872;SDS011;19224;52.462;16.898;2023-03-24T11:03:03;9.00;;;3.83;;
32872;SDS011;19224;52.462;16.898;2023-03-24T11:05:48;6.60;;;3.62;;
32872;SDS011;19224;52.462;16.898;2023-03-24T11:08:34;6.00;;;3.77;;
32872;SDS011;19224;52.462;16.898;2023-03-24T11:14:00;5.03;;;3.47;;
32872;SDS011;19224;52.462;16.898;2023-03-24T11:16:35;6.90;;;3.70;;
32872;SDS011;19224;52.462;16.898;2023-03-24T11:19:19;4.67;;;3.37;;
32872;SDS011;19224;52.462;16.898;2023-03-24T11:21:56;10.72;;;3.87;;
32872;SDS011;19224;52.462;16.898;2023-03-24T11:24:27;4.85;;;3.65;;
32872;SDS011;19224;52.462;16.898;2023-03-24T11:27:00;6.60;;;3.83;;
32872;SDS011;19224;52.462;16.898;2023-03-24T11:29:33;6.67;;;3.85;;
32872;SDS011;19224;52.462;16.898;2023-03-24T11:32:11;8.18;;;4.33;;
32872;SDS011;19224;52.462;16.898;2023-03-24T11:34:46;10.05;;;4.30;;
32872;SDS011;19224;52.462;16.898;2023-03-24T11:37:30;4.72;;;3.47;;
32872;SDS011;19224;52.462;16.898;2023-03-24T11:42:52;6.08;;;3.90;;
32872;SDS011;19224;52.462;16.898;2023-03-24T11:45:39;5.72;;;3.90;;
32872;SDS011;19224;52.462;16.898;2023-03-24T11:48:24;6.35;;;4.03;;
32872;SDS011;19224;52.462;16.898;2023-03-24T11:51:29;4.15;;;3.40;;
32872;SDS011;19224;52.462;16.898;2023-03-24T11:54:04;9.15;;;4.15;;
32872;SDS011;19224;52.462;16.898;2023-03-24T11:56:38;5.72;;;3.77;;
32872;SDS011;19224;52.462;16.898;2023-03-24T12:05:46;8.75;;;4.12;;
32872;SDS011;19224;52.462;16.898;2023-03-24T12:22:58;5.22;;;3.90;;
32872;SDS011;19224;52.462;16.898;2023-03-24T12:25:41;4.97;;;3.52;;
32872;SDS011;19224;52.462;16.898;2023-03-24T12:28:47;5.33;;;3.35;;
32872;SDS011;19224;52.462;16.898;2023-03-24T12:40:37;5.03;;;3.00;;
32872;SDS011;19224;52.462;16.898;2023-03-24T12:45:55;4.00;;;2.77;;
32872;SDS011;19224;52.462;16.898;2023-03-24T12:51:34;4.05;;;2.62;;
32872;SDS011;19224;52.462;16.898;2023-03-24T12:54:22;3.35;;;2.50;;
32872;SDS011;19224;52.462;16.898;2023-03-24T12:57:12;4.20;;;2.33;;
32872;SDS011;19224;52.462;16.898;2023-03-24T12:59:53;5.22;;;2.40;;
32872;SDS011;19224;52.462;16.898;2023-03-24T13:02:34;4.47;;;2.08;;
32872;SDS011;19224;52.462;16.898;2023-03-24T13:05:17;3.45;;;2.30;;
32872;SDS011;19224;52.462;16.898;2023-03-24T13:07:53;2.37;;;1.77;;
32872;SDS011;19224;52.462;16.898;2023-03-24T13:10:34;6.75;;;2.00;;
32872;SDS011;19224;52.462;16.898;2023-03-24T13:13:11;3.77;;;1.70;;
32872;SDS011;19224;52.462;16.898;2023-03-24T13:15:57;3.12;;;1.77;;
32872;SDS011;19224;52.462;16.898;2023-03-24T13:18:35;1.75;;;1.57;;
32872;SDS011;19224;52.462;16.898;2023-03-24T13:21:16;5.90;;;1.80;;
32872;SDS011;19224;52.462;16.898;2023-03-24T13:23:52;4.10;;;1.60;;
32872;SDS011;19224;52.462;16.898;2023-03-24T13:26:37;3.98;;;1.37;;
32872;SDS011;19224;52.462;16.898;2023-03-24T13:32:30;3.33;;;1.47;;
32872;SDS011;19224;52.462;16.898;2023-03-24T13:35:11;2.65;;;1.50;;
32872;SDS011;19224;52.462;16.898;2023-03-24T13:38:19;5.20;;;1.42;;
32872;SDS011;19224;52.462;16.898;2023-03-24T13:40:59;1.98;;;1.27;;
32872;SDS011;19224;52.462;16.898;2023-03-24T13:43:39;1.30;;;1.20;;
32872;SDS011;19224;52.462;16.898;2023-03-24T13:46:13;2.02;;;1.30;;
32872;SDS011;19224;52.462;16.898;2023-03-24T13:48:46;4.08;;;1.40;;
32872;SDS011;19224;52.462;16.898;2023-03-24T13:51:23;2.87;;;1.20;;
32872;SDS011;19224;52.462;16.898;2023-03-24T13:54:20;2.60;;;1.17;;
32872;SDS011;19224;52.462;16.898;2023-03-24T13:57:04;1.80;;;1.40;;
32872;SDS011;19224;52.462;16.898;2023-03-24T13:59:41;1.50;;;1.20;;
32872;SDS011;19224;52.462;16.898;2023-03-24T14:02:42;2.20;;;1.37;;
32872;SDS011;19224;52.462;16.898;2023-03-24T14:08:12;6.15;;;1.62;;
32872;SDS011;19224;52.462;16.898;2023-03-24T14:10:49;1.30;;;1.12;;
32872;SDS011;19224;52.462;16.898;2023-03-24T14:13:22;2.90;;;1.35;;
32872;SDS011;19224;52.462;16.898;2023-03-24T14:21:57;1.42;;;1.10;;
32872;SDS011;19224;52.462;16.898;2023-03-24T14:24:43;1.57;;;1.30;;
32872;SDS011;19224;52.462;16.898;2023-03-24T14:32:55;2.55;;;1.60;;
32872;SDS011;19224;52.462;16.898;2023-03-24T14:40:55;3.33;;;1.52;;
32872;SDS011;19224;52.462;16.898;2023-03-24T14:43:31;6.80;;;1.30;;
32872;SDS011;19224;52.462;16.898;2023-03-24T14:49:19;2.90;;;1.50;;
32872;SDS011;19224;52.462;16.898;2023-03-24T14:54:52;3.77;;;1.55;;
32872;SDS011;19224;52.462;16.898;2023-03-24T14:57:33;2.58;;;1.30;;
32872;SDS011;19224;52.462;16.898;2023-03-24T15:00:14;3.72;;;1.32;;
32872;SDS011;19224;52.462;16.898;2023-03-24T15:06:20;2.22;;;1.62;;
32872;SDS011;19224;52.462;16.898;2023-03-24T15:08:54;4.50;;;1.60;;
32872;SDS011;19224;52.462;16.898;2023-03-24T15:11:38;3.65;;;1.70;;
32872;SDS011;19224;52.462;16.898;2023-03-24T15:14:23;3.62;;;1.65;;
32872;SDS011;19224;52.462;16.898;2023-03-24T15:19:53;2.15;;;1.10;;
32872;SDS011;19224;52.462;16.898;2023-03-24T15:22:23;2.85;;;1.15;;
32872;SDS011;19224;52.462;16.898;2023-03-24T15:24:56;4.80;;;3.05;;
32872;SDS011;19224;52.462;16.898;2023-03-24T15:27:29;3.98;;;2.47;;
32872;SDS011;19224;52.462;16.898;2023-03-24T15:30:13;3.10;;;1.80;;
32872;SDS011;19224;52.462;16.898;2023-03-24T15:32:44;5.33;;;1.77;;
32872;SDS011;19224;52.462;16.898;2023-03-24T15:35:17;2.50;;;1.40;;
32872;SDS011;19224;52.462;16.898;2023-03-24T15:37:58;1.30;;;1.20;;
32872;SDS011;19224;52.462;16.898;2023-03-24T15:43:05;2.58;;;1.90;;
32872;SDS011;19224;52.462;16.898;2023-03-24T15:45:48;3.52;;;2.33;;
32872;SDS011;19224;52.462;16.898;2023-03-24T15:48:25;4.33;;;2.77;;
32872;SDS011;19224;52.462;16.898;2023-03-24T15:53:42;3.35;;;2.30;;
32872;SDS011;19224;52.462;16.898;2023-03-24T15:56:18;3.65;;;2.25;;
32872;SDS011;19224;52.462;16.898;2023-03-24T15:58:55;4.00;;;2.40;;
32872;SDS011;19224;52.462;16.898;2023-03-24T16:01:35;3.65;;;2.00;;
32872;SDS011;19224;52.462;16.898;2023-03-24T16:04:20;4.20;;;1.98;;
32872;SDS011;19224;52.462;16.898;2023-03-24T16:06:50;2.30;;;1.80;;
32872;SDS011;19224;52.462;16.898;2023-03-24T16:09:23;2.52;;;1.72;;
32872;SDS011;19224;52.462;16.898;2023-03-24T16:11:56;4.33;;;2.17;;
32872;SDS011;19224;52.462;16.898;2023-03-24T16:14:28;4.28;;;2.00;;
32872;SDS011;19224;52.462;16.898;2023-03-24T16:17:00;3.05;;;1.92;;
32872;SDS011;19224;52.462;16.898;2023-03-24T16:19:35;2.80;;;1.87;;
32872;SDS011;19224;52.462;16.898;2023-03-24T16:22:10;3.02;;;1.70;;
32872;SDS011;19224;52.462;16.898;2023-03-24T16:24:41;2.40;;;1.67;;
32872;SDS011;19224;52.462;16.898;2023-03-24T16:27:14;2.58;;;1.72;;
32872;SDS011;19224;52.462;16.898;2023-03-24T16:29:45;2.37;;;1.42;;
32872;SDS011;19224;52.462;16.898;2023-03-24T16:32:16;2.83;;;1.47;;
32872;SDS011;19224;52.462;16.898;2023-03-24T16:34:46;2.52;;;1.65;;
32872;SDS011;19224;52.462;16.898;2023-03-24T16:37:18;2.40;;;1.60;;
32872;SDS011;19224;52.462;16.898;2023-03-24T16:39:49;4.05;;;2.12;;
32872;SDS011;19224;52.462;16.898;2023-03-24T16:42:24;4.35;;;2.02;;
32872;SDS011;19224;52.462;16.898;2023-03-24T16:44:59;4.10;;;2.25;;
32872;SDS011;19224;52.462;16.898;2023-03-24T16:47:31;2.87;;;1.90;;
32872;SDS011;19224;52.462;16.898;2023-03-24T16:50:21;2.90;;;2.02;;
32872;SDS011;19224;52.462;16.898;2023-03-24T16:53:16;5.03;;;2.17;;
32872;SDS011;19224;52.462;16.898;2023-03-24T16:55:50;4.05;;;2.52;;
32872;SDS011;19224;52.462;16.898;2023-03-24T16:58:20;3.58;;;1.90;;
32872;SDS011;19224;52.462;16.898;2023-03-24T17:00:51;3.60;;;2.20;;
32872;SDS011;19224;52.462;16.898;2023-03-24T17:03:24;4.55;;;2.27;;
32872;SDS011;19224;52.462;16.898;2023-03-24T17:05:56;4.85;;;2.30;;
32872;SDS011;19224;52.462;16.898;2023-03-24T17:08:27;4.25;;;2.27;;
32872;SDS011;19224;52.462;16.898;2023-03-24T17:10:59;4.85;;;2.60;;
32872;SDS011;19224;52.462;16.898;2023-03-24T17:13:30;5.35;;;2.30;;
32872;SDS011;19224;52.462;16.898;2023-03-24T17:16:01;3.92;;;2.60;;
32872;SDS011;19224;52.462;16.898;2023-03-24T17:18:35;4.40;;;2.80;;
32872;SDS011;19224;52.462;16.898;2023-03-24T17:21:12;7.28;;;3.30;;
32872;SDS011;19224;52.462;16.898;2023-03-24T17:23:50;4.03;;;2.70;;
32872;SDS011;19224;52.462;16.898;2023-03-24T17:26:22;6.03;;;2.90;;
32872;SDS011;19224;52.462;16.898;2023-03-24T17:29:04;7.12;;;3.45;;
32872;SDS011;19224;52.462;16.898;2023-03-24T17:31:30;5.20;;;2.92;;
32872;SDS011;19224;52.462;16.898;2023-03-24T17:34:04;4.30;;;3.15;;
32872;SDS011;19224;52.462;16.898;2023-03-24T17:36:37;5.25;;;3.27;;
32872;SDS011;19224;52.462;16.898;2023-03-24T17:39:13;4.97;;;3.27;;
32872;SDS011;19224;52.462;16.898;2023-03-24T17:41:50;5.15;;;3.42;;